createdAt,value
2022-07-28T00:00:37.079Z,2.22
2022-07-28T00:03:09.154Z,1.77
2022-07-28T00:05:41.742Z,2.10
2022-07-28T00:08:13.766Z,1.75
2022-07-28T00:10:45.786Z,2.10
2022-07-28T00:13:17.861Z,2.08
2022-07-28T00:15:50.224Z,2.30
2022-07-28T00:18:22.220Z,2.92
2022-07-28T00:20:54.180Z,2.53
2022-07-28T00:23:37.599Z,1.50
2022-07-28T00:26:12.639Z,1.60
2022-07-28T00:28:44.651Z,1.60
2022-07-28T00:31:16.851Z,2.20
2022-07-28T00:33:49.021Z,2.00
2022-07-28T00:36:24.567Z,1.92
2022-07-28T00:38:57.660Z,1.58
2022-07-28T00:41:29.689Z,1.70
2022-07-28T00:44:01.655Z,2.28
2022-07-28T00:46:34.868Z,1.95
2022-07-28T00:49:07.403Z,1.80
2022-07-28T00:51:40.780Z,2.17
2022-07-28T00:54:12.979Z,2.45
2022-07-28T00:56:45.236Z,1.63
2022-07-28T00:59:17.475Z,1.55
2022-07-28T01:01:49.907Z,2.00
2022-07-28T01:04:25.929Z,2.22
2022-07-28T01:07:23.912Z,2.42
2022-07-28T01:10:16.428Z,2.75
2022-07-28T01:13:04.415Z,2.33
2022-07-28T01:16:03.028Z,2.13
2022-07-28T01:19:04.374Z,2.15
2022-07-28T01:21:40.081Z,1.85
2022-07-28T01:24:44.019Z,1.75
2022-07-28T01:27:49.727Z,1.80
2022-07-28T01:30:39.885Z,1.67
2022-07-28T01:33:48.022Z,1.85
2022-07-28T01:36:27.029Z,1.10
2022-07-28T01:39:00.680Z,2.33
2022-07-28T01:41:34.146Z,1.40
2022-07-28T01:44:11.159Z,1.42
2022-07-28T01:46:45.220Z,1.92
2022-07-28T01:49:20.091Z,1.13
2022-07-28T01:51:53.350Z,1.33
2022-07-28T01:54:28.611Z,1.45
2022-07-28T01:57:02.071Z,1.23
2022-07-28T01:59:35.053Z,1.60
2022-07-28T02:02:08.028Z,1.67
2022-07-28T02:04:41.805Z,1.55
2022-07-28T02:07:15.092Z,1.55
2022-07-28T02:09:47.981Z,1.20
2022-07-28T02:12:20.762Z,1.70
2022-07-28T02:14:54.019Z,1.73
2022-07-28T02:17:31.362Z,1.73
2022-07-28T02:20:06.118Z,1.33
2022-07-28T02:22:40.601Z,1.48
2022-07-28T02:25:13.483Z,1.70
2022-07-28T02:27:52.774Z,1.35
2022-07-28T02:30:47.450Z,1.92
2022-07-28T02:33:58.107Z,1.75
2022-07-28T02:36:31.312Z,2.75
2022-07-28T02:39:08.599Z,1.42
2022-07-28T02:41:42.919Z,1.92
2022-07-28T02:44:29.216Z,2.38
2022-07-28T02:47:05.012Z,1.77
2022-07-28T02:49:39.060Z,1.75
2022-07-28T02:52:12.670Z,1.60
2022-07-28T02:54:45.530Z,1.58
2022-07-28T02:57:19.460Z,1.90
2022-07-28T02:59:53.173Z,1.75
2022-07-28T03:02:25.467Z,1.45
2022-07-28T03:04:59.253Z,1.50
2022-07-28T03:07:33.182Z,1.52
2022-07-28T03:10:06.071Z,2.15
2022-07-28T03:12:38.056Z,1.83
2022-07-28T03:15:10.989Z,1.58
2022-07-28T03:17:44.064Z,1.80
2022-07-28T03:20:16.047Z,1.60
2022-07-28T03:22:48.041Z,1.98
2022-07-28T03:25:48.330Z,1.95
2022-07-28T03:28:22.360Z,1.73
2022-07-28T03:31:09.009Z,1.30
2022-07-28T03:33:41.585Z,1.70
2022-07-28T03:36:19.561Z,1.75
2022-07-28T03:39:03.935Z,2.25
2022-07-28T03:41:37.099Z,1.65
2022-07-28T03:44:12.694Z,1.70
2022-07-28T03:46:46.287Z,1.67
2022-07-28T03:49:18.307Z,1.75
2022-07-28T03:51:50.426Z,1.70
2022-07-28T03:54:22.480Z,1.55
2022-07-28T03:56:54.544Z,2.25
2022-07-28T03:59:26.556Z,1.55
2022-07-28T04:01:58.572Z,1.90
2022-07-28T04:04:30.648Z,1.38
2022-07-28T04:07:02.631Z,1.55
2022-07-28T04:09:34.559Z,1.98
2022-07-28T04:12:07.025Z,1.92
2022-07-28T04:14:39.007Z,2.00
2022-07-28T04:17:11.123Z,2.08
2022-07-28T04:19:43.176Z,1.50
2022-07-28T04:22:15.130Z,2.13
2022-07-28T04:24:47.169Z,2.53
2022-07-28T04:27:19.182Z,1.90
2022-07-28T04:29:51.122Z,1.60
2022-07-28T04:32:23.098Z,2.13
2022-07-28T04:34:55.226Z,1.92
2022-07-28T04:37:27.575Z,2.00
2022-07-28T04:40:07.223Z,1.65
2022-07-28T04:42:40.255Z,2.00
2022-07-28T04:45:12.377Z,1.92
2022-07-28T04:47:44.438Z,1.80
2022-07-28T04:50:19.071Z,3.35
2022-07-28T04:52:51.145Z,3.33
2022-07-28T04:55:23.153Z,2.90
2022-07-28T04:57:55.136Z,2.33
2022-07-28T05:00:27.129Z,2.45
2022-07-28T05:02:59.154Z,2.25
2022-07-28T05:05:31.408Z,2.70
2022-07-28T05:08:03.423Z,2.35
2022-07-28T05:10:35.476Z,2.17
2022-07-28T05:13:08.053Z,1.73
2022-07-28T05:15:40.096Z,1.88
2022-07-28T05:18:12.061Z,1.65
2022-07-28T05:20:44.033Z,2.10
2022-07-28T05:23:17.723Z,2.25
2022-07-28T05:25:49.905Z,2.80
2022-07-28T05:28:22.009Z,1.88
2022-07-28T05:30:54.355Z,1.95
2022-07-28T05:33:31.168Z,2.00
2022-07-28T05:36:05.241Z,2.30
2022-07-28T05:38:37.443Z,2.30
2022-07-28T05:41:09.403Z,1.92
2022-07-28T05:43:41.531Z,2.60
2022-07-28T05:46:13.572Z,2.05
2022-07-28T05:48:46.688Z,1.98
2022-07-28T05:51:18.976Z,1.92
2022-07-28T05:53:50.943Z,2.05
2022-07-28T05:56:23.212Z,2.10
2022-07-28T05:58:55.181Z,1.75
2022-07-28T06:01:27.228Z,2.17
2022-07-28T06:04:25.670Z,2.30
2022-07-28T06:06:51.536Z,1.77
2022-07-28T06:09:23.551Z,2.40
2022-07-28T06:11:56.256Z,1.70
2022-07-28T06:14:28.283Z,1.50
2022-07-28T06:17:00.312Z,1.48
2022-07-28T06:19:35.187Z,1.88
2022-07-28T06:22:07.151Z,1.50
2022-07-28T06:24:39.177Z,1.95
2022-07-28T06:27:11.237Z,2.00
2022-07-28T06:29:43.185Z,2.35
2022-07-28T06:32:17.155Z,2.15
2022-07-28T06:34:49.140Z,2.47
2022-07-28T06:37:21.152Z,1.92
2022-07-28T06:39:53.131Z,1.90
2022-07-28T06:42:25.228Z,1.55
2022-07-28T06:44:59.738Z,1.40
2022-07-28T06:47:32.245Z,1.65
2022-07-28T06:50:06.116Z,1.90
2022-07-28T06:52:58.984Z,1.38
2022-07-28T06:55:35.551Z,1.58
2022-07-28T06:58:08.465Z,1.30
2022-07-28T07:00:40.522Z,1.20
2022-07-28T07:03:12.592Z,1.30
2022-07-28T07:05:44.630Z,1.00
2022-07-28T07:08:21.055Z,1.35
2022-07-28T07:10:53.116Z,1.90
2022-07-28T07:13:25.293Z,2.20
2022-07-28T07:15:57.376Z,2.30
2022-07-28T07:18:29.546Z,0.90
2022-07-28T07:21:01.581Z,1.48
2022-07-28T07:23:35.554Z,1.10
2022-07-28T07:26:07.550Z,1.17
2022-07-28T07:28:41.941Z,1.05
2022-07-28T07:31:14.166Z,1.08
2022-07-28T07:33:46.550Z,1.08
2022-07-28T07:36:18.675Z,1.05
2022-07-28T07:38:50.715Z,1.00
2022-07-28T07:41:23.163Z,0.90
2022-07-28T07:43:55.212Z,0.90
2022-07-28T07:46:27.272Z,1.33
2022-07-28T07:48:59.380Z,1.00
2022-07-28T07:51:31.550Z,0.90
2022-07-28T07:54:03.629Z,1.35
2022-07-28T07:56:35.634Z,1.20
2022-07-28T07:59:07.710Z,0.90
2022-07-28T08:01:40.450Z,1.20
2022-07-28T08:04:14.235Z,0.93
2022-07-28T08:06:48.079Z,1.20
2022-07-28T08:09:20.334Z,0.90
2022-07-28T08:11:52.332Z,1.17
2022-07-28T08:14:24.326Z,0.70
2022-07-28T08:16:58.595Z,0.80
2022-07-28T08:19:30.626Z,1.10
2022-07-28T08:22:02.689Z,1.13
2022-07-28T08:24:34.787Z,1.00
2022-07-28T08:27:07.266Z,0.82
2022-07-28T08:29:39.315Z,0.60
2022-07-28T08:32:11.295Z,0.82
2022-07-28T08:34:43.275Z,0.70
2022-07-28T08:37:15.262Z,0.80
2022-07-28T08:39:47.242Z,0.93
2022-07-28T08:42:27.404Z,1.30
2022-07-28T08:45:04.024Z,0.95
2022-07-28T08:47:58.636Z,0.88
2022-07-28T08:50:31.248Z,1.00
2022-07-28T08:53:03.629Z,1.00
2022-07-28T08:55:37.048Z,0.80
2022-07-28T08:58:09.294Z,0.80
2022-07-28T09:00:42.094Z,1.90
2022-07-28T09:03:15.081Z,0.68
2022-07-28T09:05:47.640Z,1.52
2022-07-28T09:08:19.804Z,1.02
2022-07-28T09:10:52.617Z,0.98
2022-07-28T09:13:24.680Z,0.90
2022-07-28T09:15:57.527Z,1.45
2022-07-28T09:18:29.602Z,0.80
2022-07-28T09:21:01.578Z,0.80
2022-07-28T09:23:48.819Z,0.73
2022-07-28T09:26:20.909Z,0.88
2022-07-28T09:28:56.266Z,0.88
2022-07-28T09:31:30.692Z,0.70
2022-07-28T09:34:06.184Z,0.95
2022-07-28T09:36:40.954Z,0.70
2022-07-28T09:39:32.736Z,0.90
2022-07-28T09:42:04.892Z,0.80
2022-07-28T09:44:37.058Z,1.00
2022-07-28T09:47:25.138Z,0.90
2022-07-28T09:49:57.313Z,1.10
2022-07-28T09:52:38.448Z,0.60
2022-07-28T09:55:12.753Z,0.70
2022-07-28T09:57:45.820Z,0.80
2022-07-28T10:00:28.470Z,1.35
2022-07-28T10:03:00.866Z,0.75
2022-07-28T10:05:41.109Z,0.60
2022-07-28T10:08:13.049Z,0.85
2022-07-28T10:11:00.794Z,0.80
2022-07-28T10:13:33.044Z,0.90
2022-07-28T10:16:12.518Z,0.73
2022-07-28T10:18:45.076Z,0.88
2022-07-28T10:21:20.604Z,0.82
2022-07-28T10:23:56.256Z,0.90
2022-07-28T10:26:57.043Z,1.30
2022-07-28T10:29:31.629Z,0.70
2022-07-28T10:32:06.417Z,0.80
2022-07-28T10:34:45.313Z,0.73
2022-07-28T10:37:27.848Z,1.10
2022-07-28T10:40:10.719Z,0.80
2022-07-28T10:42:43.250Z,0.75
2022-07-28T10:45:16.424Z,1.35
2022-07-28T10:47:49.292Z,1.42
2022-07-28T10:50:22.000Z,1.52
2022-07-28T10:52:58.953Z,0.57
2022-07-28T10:55:49.675Z,0.77
2022-07-28T10:58:50.404Z,1.00
2022-07-28T11:01:50.320Z,0.80
2022-07-28T11:04:41.657Z,0.75
2022-07-28T11:07:17.091Z,0.52
2022-07-28T11:09:49.788Z,0.68
2022-07-28T11:12:52.340Z,0.57
2022-07-28T11:15:38.352Z,0.85
2022-07-28T11:18:10.808Z,0.70
2022-07-28T11:21:00.700Z,0.70
2022-07-28T11:23:53.896Z,0.70
2022-07-28T11:26:38.201Z,0.65
2022-07-28T11:29:13.239Z,0.40
2022-07-28T11:31:45.271Z,1.70
2022-07-28T11:34:23.819Z,1.52
2022-07-28T11:37:15.214Z,0.93
2022-07-28T11:39:47.463Z,0.57
2022-07-28T11:42:33.828Z,4.07
2022-07-28T11:45:35.887Z,0.82
2022-07-28T11:48:25.288Z,1.27
2022-07-28T11:51:03.270Z,0.80
2022-07-28T11:53:52.909Z,0.40
2022-07-28T11:59:08.031Z,0.80
2022-07-28T12:01:56.958Z,0.40
2022-07-28T12:04:29.381Z,0.38
2022-07-28T12:07:02.552Z,0.90
2022-07-28T12:09:41.903Z,0.60
2022-07-28T12:12:14.487Z,0.68
2022-07-28T12:14:46.921Z,0.35
2022-07-28T12:17:19.051Z,0.50
2022-07-28T12:19:52.895Z,0.45
2022-07-28T12:22:26.182Z,0.52
2022-07-28T12:24:58.463Z,0.40
2022-07-28T12:27:31.839Z,0.47
2022-07-28T12:30:05.769Z,0.50
2022-07-28T12:32:37.748Z,0.60
2022-07-28T12:35:10.217Z,0.55
2022-07-28T12:37:44.372Z,0.80
2022-07-28T12:40:27.445Z,0.52
2022-07-28T12:42:59.725Z,0.50
2022-07-28T12:45:33.492Z,0.50
2022-07-28T12:48:09.101Z,0.40
2022-07-28T12:50:41.737Z,0.40
2022-07-28T12:53:15.225Z,0.63
2022-07-28T12:55:47.476Z,0.55
2022-07-28T12:58:28.803Z,0.38
2022-07-28T13:01:01.576Z,0.70
2022-07-28T13:03:33.920Z,0.50
2022-07-28T13:06:15.764Z,0.70
2022-07-28T13:08:48.137Z,0.52
2022-07-28T13:11:47.432Z,0.50
2022-07-28T13:14:44.403Z,0.52
2022-07-28T13:17:16.654Z,0.40
2022-07-28T13:19:49.586Z,0.40
2022-07-28T13:22:30.037Z,1.27
2022-07-28T13:25:02.545Z,0.47
2022-07-28T13:27:35.212Z,0.68
2022-07-28T13:30:11.904Z,0.60
2022-07-28T13:32:44.163Z,0.50
2022-07-28T13:35:18.137Z,0.52
2022-07-28T13:37:51.336Z,0.60
2022-07-28T13:40:23.409Z,0.30
2022-07-28T13:42:57.021Z,0.40
2022-07-28T13:45:30.343Z,0.85
2022-07-28T13:48:06.212Z,0.60
2022-07-28T13:50:41.450Z,0.50
2022-07-28T13:53:39.470Z,0.80
2022-07-28T13:56:12.055Z,0.80
2022-07-28T13:58:44.170Z,0.93
2022-07-28T14:01:16.223Z,0.75
2022-07-28T14:03:55.619Z,0.70
2022-07-28T14:06:30.412Z,0.55
2022-07-28T14:09:05.111Z,0.50
2022-07-28T14:11:37.700Z,0.70
2022-07-28T14:14:09.702Z,0.50
2022-07-28T14:16:47.452Z,0.75
2022-07-28T14:19:23.360Z,0.50
2022-07-28T14:24:46.212Z,0.45
2022-07-28T14:27:18.171Z,0.63
2022-07-28T14:29:50.274Z,0.88
2022-07-28T14:32:22.298Z,0.60
2022-07-28T14:34:54.652Z,0.55
2022-07-28T14:37:27.501Z,0.60
2022-07-28T14:39:59.504Z,0.57
2022-07-28T14:42:31.492Z,0.60
2022-07-28T14:45:05.692Z,0.80
2022-07-28T14:47:45.202Z,0.60
2022-07-28T14:50:17.652Z,0.63
2022-07-28T14:52:50.288Z,0.90
2022-07-28T14:55:22.352Z,0.70
2022-07-28T14:57:55.170Z,0.82
2022-07-28T15:00:28.487Z,0.60
2022-07-28T15:03:00.518Z,0.80
2022-07-28T15:05:34.454Z,0.80
2022-07-28T15:08:06.581Z,0.90
2022-07-28T15:10:39.107Z,0.70
2022-07-28T15:13:11.095Z,0.80
2022-07-28T15:15:44.864Z,0.77
2022-07-28T15:18:16.952Z,0.80
2022-07-28T15:20:49.829Z,0.85
2022-07-28T15:23:23.007Z,1.40
2022-07-28T15:25:56.237Z,0.88
2022-07-28T15:28:28.836Z,0.70
2022-07-28T15:31:01.286Z,1.08
2022-07-28T15:33:48.203Z,0.80
2022-07-28T15:36:25.367Z,0.63
2022-07-28T15:38:57.370Z,0.50
2022-07-28T15:41:29.847Z,0.80
2022-07-28T15:44:01.872Z,0.95
2022-07-28T15:46:34.130Z,0.85
2022-07-28T15:49:09.883Z,0.70
2022-07-28T15:51:42.103Z,0.85
2022-07-28T15:54:14.344Z,1.30
2022-07-28T15:56:46.527Z,1.02
2022-07-28T15:59:18.586Z,1.00
2022-07-28T16:01:50.750Z,0.60
2022-07-28T16:04:22.771Z,1.02
2022-07-28T16:07:14.191Z,0.77
2022-07-28T16:09:47.032Z,0.77
2022-07-28T16:12:19.197Z,0.90
2022-07-28T16:14:54.098Z,1.95
2022-07-28T16:17:26.354Z,0.85
2022-07-28T16:20:02.456Z,0.90
2022-07-28T16:22:38.840Z,1.05
2022-07-28T16:25:16.493Z,0.93
2022-07-28T16:27:49.463Z,0.52
2022-07-28T16:30:21.594Z,1.05
2022-07-28T16:32:55.155Z,0.73
2022-07-28T16:35:32.774Z,0.80
2022-07-28T16:38:05.955Z,0.80
2022-07-28T16:40:41.256Z,1.15
2022-07-28T16:43:13.326Z,0.73
2022-07-28T16:45:45.355Z,0.90
2022-07-28T16:48:17.456Z,1.20
2022-07-28T16:50:49.506Z,1.10
2022-07-28T16:53:21.549Z,1.00
2022-07-28T16:55:53.817Z,0.75
2022-07-28T16:58:26.093Z,0.80
2022-07-28T17:00:58.224Z,1.00
2022-07-28T17:03:31.173Z,1.77
2022-07-28T17:06:03.995Z,0.98
2022-07-28T17:08:36.710Z,0.60
2022-07-28T17:11:08.733Z,0.77
2022-07-28T17:13:45.067Z,0.65
2022-07-28T17:16:17.567Z,0.75
2022-07-28T17:18:49.763Z,0.60
2022-07-28T17:21:21.902Z,0.80
2022-07-28T17:23:53.944Z,0.93
2022-07-28T17:29:18.174Z,0.60
2022-07-28T17:31:50.489Z,0.85
2022-07-28T17:34:22.633Z,0.63
2022-07-28T17:36:55.579Z,0.80
2022-07-28T17:39:27.872Z,0.90
2022-07-28T17:41:59.846Z,0.80
2022-07-28T17:44:31.911Z,0.60
2022-07-28T17:47:04.908Z,0.82
2022-07-28T17:49:42.075Z,0.82
2022-07-28T17:52:17.276Z,0.80
2022-07-28T17:55:10.224Z,1.83
2022-07-28T17:57:42.191Z,1.25
2022-07-28T18:00:15.077Z,1.00
2022-07-28T18:02:49.868Z,1.15
2022-07-28T18:05:22.973Z,0.90
2022-07-28T18:07:59.052Z,1.27
2022-07-28T18:10:31.626Z,0.70
2022-07-28T18:13:04.875Z,1.00
2022-07-28T18:15:37.036Z,0.90
2022-07-28T18:18:10.047Z,1.10
2022-07-28T18:20:42.604Z,0.65
2022-07-28T18:23:15.259Z,0.80
2022-07-28T18:25:56.916Z,1.08
2022-07-28T18:28:29.049Z,1.17
2022-07-28T18:31:01.114Z,1.35
2022-07-28T18:33:33.136Z,1.13
2022-07-28T18:36:05.520Z,0.90
2022-07-28T18:38:37.478Z,1.08
2022-07-28T18:41:09.483Z,0.98
2022-07-28T18:43:41.884Z,0.85
2022-07-28T18:46:14.106Z,1.10
2022-07-28T18:48:48.485Z,1.05
2022-07-28T18:51:22.419Z,0.85
2022-07-28T18:53:57.712Z,1.13
2022-07-28T18:56:29.736Z,1.33
2022-07-28T18:59:01.698Z,1.20
2022-07-28T19:01:33.776Z,1.50
2022-07-28T19:04:05.812Z,0.95
2022-07-28T19:06:37.873Z,1.08
2022-07-28T19:09:09.950Z,1.50
2022-07-28T19:11:46.040Z,1.45
2022-07-28T19:14:19.239Z,1.38
2022-07-28T19:16:51.633Z,0.85
2022-07-28T19:19:23.711Z,1.02
2022-07-28T19:21:55.990Z,0.88
2022-07-28T19:24:28.003Z,1.10
2022-07-28T19:27:00.599Z,1.63
2022-07-28T19:29:34.893Z,1.00
2022-07-28T19:32:08.008Z,1.10
2022-07-28T19:34:40.088Z,1.00
2022-07-28T19:37:16.725Z,0.80
2022-07-28T19:39:49.468Z,1.13
2022-07-28T19:42:21.519Z,1.10
2022-07-28T19:44:56.091Z,1.00
2022-07-28T19:47:28.356Z,1.25
2022-07-28T19:50:00.412Z,1.10
2022-07-28T19:52:33.028Z,1.40
2022-07-28T19:55:06.387Z,1.52
2022-07-28T19:57:38.349Z,1.23
2022-07-28T20:00:11.705Z,1.42
2022-07-28T20:02:44.185Z,1.40
2022-07-28T20:05:16.309Z,1.80
2022-07-28T20:07:48.468Z,1.13
2022-07-28T20:10:20.862Z,1.45
2022-07-28T20:12:53.249Z,1.10
2022-07-28T20:15:26.067Z,1.10
2022-07-28T20:17:58.161Z,1.08
2022-07-28T20:20:30.116Z,1.10
2022-07-28T20:23:02.187Z,1.23
2022-07-28T20:25:34.220Z,1.48
2022-07-28T20:28:06.253Z,1.50
2022-07-28T20:30:39.465Z,1.40
2022-07-28T20:33:11.509Z,1.30
2022-07-28T20:35:43.544Z,1.75
2022-07-28T20:38:15.572Z,1.40
2022-07-28T20:40:47.573Z,1.17
2022-07-28T20:43:19.624Z,1.52
2022-07-28T20:45:51.642Z,1.48
2022-07-28T20:48:23.667Z,1.42
2022-07-28T20:50:55.728Z,1.33
2022-07-28T20:53:27.821Z,1.48
2022-07-28T20:56:00.184Z,1.30
2022-07-28T20:58:32.230Z,1.13
2022-07-28T21:01:06.673Z,1.65
2022-07-28T21:03:39.600Z,1.52
2022-07-28T21:06:16.285Z,1.27
2022-07-28T21:08:49.267Z,1.27
2022-07-28T21:11:23.532Z,1.92
2022-07-28T21:13:56.716Z,1.50
2022-07-28T21:16:28.805Z,1.20
2022-07-28T21:19:02.162Z,1.55
2022-07-28T21:21:34.208Z,1.48
2022-07-28T21:24:06.994Z,1.50
2022-07-28T21:26:42.846Z,1.63
2022-07-28T21:32:04.266Z,1.45
2022-07-28T21:34:38.167Z,1.42
2022-07-28T21:37:11.954Z,1.60
2022-07-28T21:39:44.208Z,1.88
2022-07-28T21:42:16.185Z,1.30
2022-07-28T21:44:48.604Z,1.33
2022-07-28T21:47:20.565Z,1.45
2022-07-28T21:49:53.841Z,1.70
2022-07-28T21:52:28.303Z,1.60
2022-07-28T21:55:01.952Z,2.58
2022-07-28T21:57:34.758Z,1.33
2022-07-28T22:00:13.892Z,1.30
2022-07-28T22:02:45.878Z,1.52
2022-07-28T22:05:18.852Z,1.40
2022-07-28T22:07:52.217Z,1.80
2022-07-28T22:10:25.146Z,1.50
2022-07-28T22:12:59.638Z,1.35
2022-07-28T22:15:31.636Z,1.63
2022-07-28T22:18:03.792Z,1.80
2022-07-28T22:20:35.854Z,1.45
2022-07-28T22:23:11.542Z,1.50
2022-07-28T22:26:00.602Z,1.33
2022-07-28T22:28:32.534Z,1.40
2022-07-28T22:31:09.097Z,1.80
2022-07-28T22:33:41.657Z,1.70
2022-07-28T22:36:14.175Z,1.67
2022-07-28T22:38:46.134Z,1.45
2022-07-28T22:41:18.094Z,1.50
2022-07-28T22:43:50.124Z,1.67
2022-07-28T22:46:22.254Z,1.55
2022-07-28T22:48:55.286Z,1.63
2022-07-28T22:51:27.357Z,1.58
2022-07-28T22:54:00.528Z,1.42
2022-07-28T22:56:35.063Z,1.55
2022-07-28T22:59:10.005Z,1.23
2022-07-28T23:01:44.269Z,1.70
2022-07-28T23:04:16.770Z,1.50
2022-07-28T23:06:49.138Z,1.17
2022-07-28T23:09:21.085Z,1.70
2022-07-28T23:11:55.534Z,1.83
2022-07-28T23:14:27.943Z,1.20
2022-07-28T23:16:59.935Z,1.98
2022-07-28T23:19:31.896Z,1.58
2022-07-28T23:22:05.011Z,1.50
2022-07-28T23:24:37.012Z,1.80
2022-07-28T23:27:09.009Z,1.52
2022-07-28T23:29:40.990Z,1.52
2022-07-28T23:32:17.020Z,1.60
2022-07-28T23:34:49.854Z,1.58
2022-07-28T23:37:21.824Z,1.38
2022-07-28T23:39:53.826Z,1.17
2022-07-28T23:42:25.814Z,1.83
2022-07-28T23:44:57.783Z,1.33
2022-07-28T23:47:29.837Z,1.60
2022-07-28T23:50:03.995Z,1.35
2022-07-28T23:52:35.952Z,1.63
2022-07-28T23:55:08.565Z,1.55
2022-07-28T23:57:40.549Z,1.55
